SHMÚ vydal meteorologické výstrahy na Hmla Zobraziť výstrahy

Smogová situácia PM10 - Upozornenie - Veľká Ida » Zobraziť

METAR

Letisková meteorologická správa METAR

Meteorologické informácie z ďalších profesionálnych meteorologických staníc SHMÚ zobrazené v tvare zodpovedajúcom pravidlám kódovania správ METAR sú uvedené v položke „METSYN

Informácie o správe METAR

18.02.2019 - 06:00 UTC

METAR LZIB 180600Z 07002KT 6000 0700NE R31/0350N R22/0275D BCFG NSC
M00/M01 Q1025 TEMPO 1400 BCFG=
METAR LZKZ 180600Z 01003KT 1300 R01/1600D BR BCFG FEW007 M02/M02
Q1025 TEMPO 0500 FZFG=
METAR LZPP 180600Z 03006KT 6000 NSC M02/M03 Q1025=
METAR LZSL 180600Z 00000KT 0100 FZFG OVC001 M05/M06 Q1026=
METAR LZTT 180600Z VRB02KT CAVOK M07/M08 Q1023 NOSIG=
METAR LZZI 180600Z VRB01KT CAVOK M04/M05 Q1025=

18.02.2019 - 05:30 UTC

METAR LZIB 180530Z 04002KT 6000 0700E R31/1100U R22/P2000N BCFG NSC
M01/M02 Q1025 NOSIG=
METAR LZKZ 180530Z 22001KT 1500 BR BCFG FEW007 M01/M02 Q1025 TEMPO
0500 FZFG=
METAR LZPP 180530Z 02005KT 6000 NSC M02/M03 Q1025=
METAR LZSL 180530Z 00000KT 0100 FZFG OVC001 M05/M06 Q1026=
METAR LZTT 180530Z 26003KT CAVOK M06/M08 Q1023 NOSIG=
METAR LZZI 180530Z 07003KT CAVOK M04/M04 Q1025=

18.02.2019 - 06:00 UTC

METAR LZMC 180600Z 00000KT 2000 MIFG NSC M03/M04 Q1025=
METAR LZPW 180600Z 00000KT 0100 FG OVC002 M01/M02
Q1025=

skok na menu ↑


skok na začiatok stránky ↑